createdAt,value
2022-11-10T00:01:52.093Z,2.40
2022-11-10T00:04:55.807Z,2.53
2022-11-10T00:08:06.637Z,2.50
2022-11-10T00:11:10.458Z,2.38
2022-11-10T00:14:33.161Z,2.38
2022-11-10T00:17:37.393Z,2.80
2022-11-10T00:20:41.435Z,2.40
2022-11-10T00:23:45.710Z,2.50
2022-11-10T00:26:50.298Z,2.58
2022-11-10T00:29:54.440Z,2.45
2022-11-10T00:32:58.487Z,2.40
2022-11-10T00:36:02.289Z,2.63
2022-11-10T00:39:06.280Z,2.35
2022-11-10T00:42:10.221Z,2.53
2022-11-10T00:45:14.988Z,2.28
2022-11-10T00:48:19.330Z,2.35
2022-11-10T00:51:24.768Z,2.20
2022-11-10T00:54:28.936Z,2.53
2022-11-10T00:57:32.913Z,2.08
2022-11-10T01:00:36.640Z,2.15
2022-11-10T01:03:40.885Z,2.53
2022-11-10T01:06:44.650Z,2.27
2022-11-10T01:09:48.425Z,2.33
2022-11-10T01:12:52.734Z,2.40
2022-11-10T01:15:56.532Z,2.20
2022-11-10T01:19:01.469Z,2.28
2022-11-10T01:22:05.450Z,2.30
2022-11-10T01:25:09.835Z,2.47
2022-11-10T01:28:13.955Z,2.15
2022-11-10T01:31:19.231Z,2.20
2022-11-10T01:34:23.400Z,2.28
2022-11-10T01:37:27.872Z,2.00
2022-11-10T01:40:31.891Z,2.25
2022-11-10T01:43:36.262Z,2.20
2022-11-10T01:46:39.834Z,2.20
2022-11-10T01:49:43.622Z,2.05
2022-11-10T01:52:49.284Z,2.20
2022-11-10T01:55:54.894Z,1.98
2022-11-10T01:59:14.743Z,1.95
2022-11-10T02:02:25.556Z,2.50
2022-11-10T02:05:29.647Z,2.30
2022-11-10T02:08:33.783Z,1.87
2022-11-10T02:11:38.338Z,2.00
2022-11-10T02:14:43.004Z,2.00
2022-11-10T02:17:47.788Z,1.77
2022-11-10T02:20:51.649Z,2.00
2022-11-10T02:23:55.567Z,2.20
2022-11-10T02:26:59.199Z,1.92
2022-11-10T02:30:03.968Z,1.83
2022-11-10T02:33:08.188Z,2.13
2022-11-10T02:36:12.392Z,2.10
2022-11-10T02:39:16.580Z,2.10
2022-11-10T02:42:20.641Z,2.10
2022-11-10T02:45:24.784Z,1.92
2022-11-10T02:48:28.621Z,2.00
2022-11-10T02:51:32.392Z,2.10
2022-11-10T02:54:36.235Z,1.60
2022-11-10T02:57:40.064Z,1.90
2022-11-10T03:00:43.931Z,2.00
2022-11-10T03:03:47.731Z,1.83
2022-11-10T03:06:51.512Z,1.73
2022-11-10T03:09:56.013Z,1.80
2022-11-10T03:13:00.928Z,1.80
2022-11-10T03:16:04.980Z,2.20
2022-11-10T03:19:08.807Z,1.90
2022-11-10T03:22:12.573Z,1.70
2022-11-10T03:25:17.014Z,1.70
2022-11-10T03:28:21.159Z,1.60
2022-11-10T03:31:25.203Z,1.90
2022-11-10T03:34:31.852Z,1.70
2022-11-10T03:37:35.827Z,2.00
2022-11-10T03:41:12.112Z,1.60
2022-11-10T03:44:03.847Z,1.65
2022-11-10T03:47:07.863Z,1.92
2022-11-10T03:50:11.689Z,1.50
2022-11-10T03:53:15.857Z,1.67
2022-11-10T03:56:20.121Z,1.90
2022-11-10T03:59:24.023Z,1.52
2022-11-10T04:02:28.318Z,1.90
2022-11-10T04:05:51.129Z,1.60
2022-11-10T04:09:01.257Z,1.73
2022-11-10T04:12:25.000Z,1.70
2022-11-10T04:15:45.039Z,1.70
2022-11-10T04:18:49.081Z,1.90
2022-11-10T04:21:53.319Z,1.60
2022-11-10T04:24:57.061Z,1.98
2022-11-10T04:28:00.808Z,1.67
2022-11-10T04:31:04.894Z,1.58
2022-11-10T04:34:09.590Z,1.60
2022-11-10T04:37:13.368Z,1.90
2022-11-10T04:40:17.364Z,1.73
2022-11-10T04:43:21.620Z,1.43
2022-11-10T04:46:25.954Z,1.63
2022-11-10T04:49:29.486Z,1.67
2022-11-10T04:52:33.526Z,1.33
2022-11-10T04:55:41.747Z,1.58
2022-11-10T04:58:46.677Z,1.43
2022-11-10T05:01:50.606Z,1.40
2022-11-10T05:04:54.812Z,1.60
2022-11-10T05:07:58.821Z,1.52
2022-11-10T05:11:04.006Z,1.40
2022-11-10T05:14:08.444Z,1.50
2022-11-10T05:17:12.505Z,1.60
2022-11-10T05:20:16.981Z,1.58
2022-11-10T05:23:39.465Z,1.20
2022-11-10T05:26:43.591Z,1.40
2022-11-10T05:29:47.730Z,1.60
2022-11-10T05:32:51.754Z,1.30
2022-11-10T05:35:55.627Z,1.55
2022-11-10T05:38:59.318Z,1.50
2022-11-10T05:42:03.234Z,1.40
2022-11-10T05:45:07.726Z,1.60
2022-11-10T05:48:11.754Z,1.48
2022-11-10T05:51:15.439Z,1.80
2022-11-10T05:54:19.474Z,1.30
2022-11-10T05:57:24.124Z,1.48
2022-11-10T06:00:29.342Z,1.50
2022-11-10T06:03:33.539Z,1.33
2022-11-10T06:06:38.023Z,1.30
2022-11-10T06:09:42.109Z,1.70
2022-11-10T06:12:46.788Z,1.48
2022-11-10T06:15:51.228Z,1.33
2022-11-10T06:18:55.324Z,1.42
2022-11-10T06:22:05.054Z,1.38
2022-11-10T06:25:12.042Z,1.58
2022-11-10T06:28:17.251Z,1.42
2022-11-10T06:31:21.279Z,1.20
2022-11-10T06:34:25.576Z,1.40
2022-11-10T06:37:30.149Z,1.25
2022-11-10T06:40:34.478Z,1.48
2022-11-10T06:43:38.522Z,1.45
2022-11-10T06:46:42.858Z,1.47
2022-11-10T06:49:47.209Z,1.50
2022-11-10T06:52:58.312Z,1.73
2022-11-10T06:56:02.050Z,1.38
2022-11-10T06:59:05.811Z,1.30
2022-11-10T07:02:16.377Z,1.80
2022-11-10T07:05:20.338Z,1.48
2022-11-10T07:08:24.979Z,1.38
2022-11-10T07:11:29.202Z,1.20
2022-11-10T07:14:32.986Z,1.10
2022-11-10T07:17:43.579Z,1.63
2022-11-10T07:20:47.298Z,1.23
2022-11-10T07:23:50.949Z,1.25
2022-11-10T07:26:54.861Z,1.50
2022-11-10T07:29:59.073Z,1.30
2022-11-10T07:33:05.067Z,1.47
2022-11-10T07:36:09.164Z,1.33
2022-11-10T07:39:13.523Z,1.45
2022-11-10T07:42:17.556Z,1.55
2022-11-10T07:45:21.618Z,1.40
2022-11-10T07:48:25.343Z,1.20
2022-11-10T07:51:30.705Z,1.27
2022-11-10T07:54:34.742Z,1.25
2022-11-10T07:57:38.637Z,1.10
2022-11-10T08:00:43.008Z,1.10
2022-11-10T08:03:46.753Z,1.10
2022-11-10T08:06:50.612Z,1.30
2022-11-10T08:09:54.972Z,1.45
2022-11-10T08:13:03.046Z,1.13
2022-11-10T08:16:07.459Z,1.25
2022-11-10T08:19:11.440Z,0.90
2022-11-10T08:22:15.187Z,1.00
2022-11-10T08:25:18.950Z,1.38
2022-11-10T08:28:22.886Z,1.20
2022-11-10T08:31:26.784Z,1.23
2022-11-10T08:34:30.418Z,1.00
2022-11-10T08:37:34.721Z,0.80
2022-11-10T08:40:39.755Z,1.10
2022-11-10T08:43:43.715Z,1.17
2022-11-10T08:46:47.562Z,1.05
2022-11-10T08:49:51.186Z,1.00
2022-11-10T08:52:55.826Z,0.93
2022-11-10T08:56:00.346Z,0.90
2022-11-10T08:59:04.527Z,1.15
2022-11-10T09:02:09.932Z,0.95
2022-11-10T09:05:13.638Z,0.80
2022-11-10T09:08:17.649Z,1.00
2022-11-10T09:11:21.810Z,1.08
2022-11-10T09:14:25.647Z,1.10
2022-11-10T09:17:29.474Z,1.00
2022-11-10T09:20:34.874Z,0.90
2022-11-10T09:23:39.037Z,0.88
2022-11-10T09:26:45.278Z,0.90
2022-11-10T09:29:48.988Z,0.93
2022-11-10T09:32:53.803Z,0.93
2022-11-10T09:35:58.973Z,1.00
2022-11-10T09:39:02.900Z,1.10
2022-11-10T09:42:21.414Z,1.17
2022-11-10T09:45:51.688Z,0.98
2022-11-10T09:48:59.044Z,1.08
2022-11-10T09:52:03.776Z,1.20
2022-11-10T09:55:26.465Z,0.95
2022-11-10T09:58:33.845Z,1.10
2022-11-10T10:01:59.279Z,1.15
2022-11-10T10:05:03.174Z,0.90
2022-11-10T10:08:08.870Z,0.90
2022-11-10T10:11:15.950Z,1.00
2022-11-10T10:14:28.933Z,1.10
2022-11-10T10:17:35.006Z,1.10
2022-11-10T10:20:59.885Z,0.82
2022-11-10T10:24:16.563Z,0.80
2022-11-10T10:27:26.513Z,1.00
2022-11-10T10:30:30.572Z,1.13
2022-11-10T10:33:34.498Z,0.90
2022-11-10T10:36:38.236Z,0.88
2022-11-10T10:39:44.513Z,0.90
2022-11-10T10:42:48.519Z,0.70
2022-11-10T10:46:09.461Z,0.90
2022-11-10T10:49:28.040Z,1.20
2022-11-10T10:52:33.007Z,0.98
2022-11-10T10:55:37.002Z,0.83
2022-11-10T10:59:01.271Z,0.93
2022-11-10T11:02:21.399Z,1.00
2022-11-10T11:05:25.458Z,1.10
2022-11-10T11:08:29.605Z,1.00
2022-11-10T11:11:35.015Z,1.00
2022-11-10T11:14:41.910Z,0.98
2022-11-10T11:17:54.062Z,0.95
2022-11-10T11:21:02.230Z,0.90
2022-11-10T11:24:06.325Z,0.90
2022-11-10T11:27:14.513Z,0.93
2022-11-10T11:30:22.743Z,1.00
2022-11-10T11:33:45.643Z,1.10
2022-11-10T11:36:52.807Z,1.10
2022-11-10T11:40:03.069Z,1.23
2022-11-10T11:43:07.478Z,0.87
2022-11-10T11:46:18.189Z,0.80
2022-11-10T11:49:41.158Z,0.80
2022-11-10T11:52:55.121Z,0.90
2022-11-10T11:56:05.358Z,0.90
2022-11-10T11:59:21.409Z,0.97
2022-11-10T12:02:28.959Z,0.90
2022-11-10T12:05:37.515Z,0.90
2022-11-10T12:08:44.779Z,0.80
2022-11-10T12:12:07.713Z,0.93
2022-11-10T12:15:17.754Z,0.80
2022-11-10T12:18:36.539Z,1.00
2022-11-10T12:21:51.250Z,0.95
2022-11-10T12:25:01.788Z,0.80
2022-11-10T12:28:11.774Z,0.80
2022-11-10T12:31:18.097Z,0.73
2022-11-10T12:34:38.062Z,0.85
2022-11-10T12:37:54.283Z,0.70
2022-11-10T12:41:02.792Z,0.70
2022-11-10T12:44:22.972Z,0.98
2022-11-10T12:47:45.712Z,0.80
2022-11-10T12:51:07.335Z,0.82
2022-11-10T12:54:16.628Z,0.80
2022-11-10T12:57:26.139Z,1.05
2022-11-10T13:00:40.199Z,0.90
2022-11-10T13:03:53.294Z,1.00
2022-11-10T13:07:01.668Z,0.80
2022-11-10T13:10:25.549Z,0.90
2022-11-10T13:13:30.943Z,0.80
2022-11-10T13:16:38.084Z,0.80
2022-11-10T13:19:49.235Z,0.60
2022-11-10T13:22:53.326Z,0.68
2022-11-10T13:26:05.693Z,0.60
2022-11-10T13:29:19.586Z,0.77
2022-11-10T13:32:28.076Z,0.70
2022-11-10T13:35:38.279Z,0.60
2022-11-10T13:38:44.136Z,0.65
2022-11-10T13:41:47.896Z,0.77
2022-11-10T13:44:53.867Z,0.80
2022-11-10T13:48:04.537Z,0.75
2022-11-10T13:51:17.500Z,0.67
2022-11-10T13:54:48.456Z,0.88
2022-11-10T13:57:57.580Z,0.80
2022-11-10T14:01:16.773Z,0.70
2022-11-10T14:04:41.099Z,0.77
2022-11-10T14:07:45.748Z,0.73
2022-11-10T14:10:51.581Z,0.80
2022-11-10T14:13:55.438Z,0.90
2022-11-10T14:16:59.618Z,0.77
2022-11-10T14:20:04.040Z,1.05
2022-11-10T14:23:13.608Z,0.70
2022-11-10T14:26:22.951Z,0.80
2022-11-10T14:29:38.870Z,0.70
2022-11-10T14:32:42.751Z,0.80
2022-11-10T14:35:51.257Z,0.80
2022-11-10T14:38:55.376Z,0.70
2022-11-10T14:42:00.827Z,0.98
2022-11-10T14:45:16.980Z,0.80
2022-11-10T14:48:22.783Z,0.90
2022-11-10T14:51:28.852Z,0.73
2022-11-10T14:54:32.991Z,0.73
2022-11-10T14:57:38.140Z,0.90
2022-11-10T15:00:42.235Z,1.35
2022-11-10T15:03:46.082Z,0.70
2022-11-10T15:06:51.694Z,0.70
2022-11-10T15:10:16.496Z,0.80
2022-11-10T15:13:26.899Z,1.10
2022-11-10T15:16:31.615Z,1.05
2022-11-10T15:19:36.610Z,1.65
2022-11-10T15:22:40.766Z,1.75
2022-11-10T15:25:50.535Z,1.77
2022-11-10T15:28:57.816Z,1.65
2022-11-10T15:32:02.243Z,2.15
2022-11-10T15:35:11.335Z,1.90
2022-11-10T15:38:29.547Z,1.80
2022-11-10T15:41:34.359Z,1.63
2022-11-10T15:44:38.684Z,1.98
2022-11-10T15:47:42.536Z,1.92
2022-11-10T15:50:48.290Z,1.77
2022-11-10T15:53:52.998Z,1.90
2022-11-10T15:56:57.035Z,1.73
2022-11-10T16:00:00.806Z,2.00
2022-11-10T16:03:04.847Z,2.10
2022-11-10T16:06:15.814Z,1.80
2022-11-10T16:09:19.921Z,1.75
2022-11-10T16:12:24.110Z,1.70
2022-11-10T16:15:27.994Z,1.50
2022-11-10T16:18:31.778Z,2.03
2022-11-10T16:21:35.505Z,1.80
2022-11-10T16:24:39.934Z,2.03
2022-11-10T16:27:44.086Z,1.90
2022-11-10T16:30:47.813Z,1.90
2022-11-10T16:33:51.655Z,1.77
2022-11-10T16:36:55.596Z,1.70
2022-11-10T16:39:59.601Z,1.85
2022-11-10T16:43:03.843Z,1.83
2022-11-10T16:46:17.396Z,1.50
2022-11-10T16:49:31.580Z,1.73
2022-11-10T16:52:35.458Z,1.65
2022-11-10T16:55:39.391Z,1.63
2022-11-10T16:58:43.323Z,1.57
2022-11-10T17:01:48.010Z,1.50
2022-11-10T17:04:52.512Z,1.90
2022-11-10T17:07:57.070Z,1.70
2022-11-10T17:11:01.713Z,1.90
2022-11-10T17:14:07.223Z,1.97
2022-11-10T17:17:15.345Z,1.77
2022-11-10T17:20:21.665Z,1.90
2022-11-10T17:23:26.577Z,1.58
2022-11-10T17:26:31.610Z,1.88
2022-11-10T17:29:35.593Z,1.87
2022-11-10T17:33:03.616Z,1.85
2022-11-10T17:36:05.083Z,1.52
2022-11-10T17:39:12.491Z,1.95
2022-11-10T17:42:17.022Z,1.73
2022-11-10T17:45:25.634Z,1.43
2022-11-10T17:48:29.700Z,2.25
2022-11-10T17:51:34.180Z,2.20
2022-11-10T17:54:38.034Z,1.98
2022-11-10T17:57:41.886Z,2.05
2022-11-10T18:00:46.296Z,2.30
2022-11-10T18:03:50.827Z,2.10
2022-11-10T18:06:55.897Z,2.20
2022-11-10T18:09:59.639Z,1.63
2022-11-10T18:13:03.521Z,1.90
2022-11-10T18:16:10.535Z,1.80
2022-11-10T18:19:14.467Z,1.90
2022-11-10T18:22:18.609Z,1.95
2022-11-10T18:25:22.554Z,1.80
2022-11-10T18:28:26.398Z,2.03
2022-11-10T18:31:30.507Z,2.00
2022-11-10T18:34:34.336Z,2.00
2022-11-10T18:37:39.246Z,2.00
2022-11-10T18:40:43.565Z,1.75
2022-11-10T18:43:47.597Z,1.88
2022-11-10T18:46:51.676Z,1.70
2022-11-10T18:49:55.595Z,1.80
2022-11-10T18:52:59.515Z,2.30
2022-11-10T18:56:03.403Z,1.70
2022-11-10T18:59:07.162Z,1.75
2022-11-10T19:02:11.963Z,1.80
2022-11-10T19:05:16.220Z,2.00
2022-11-10T19:08:19.888Z,1.90
2022-11-10T19:11:23.844Z,1.98
2022-11-10T19:14:28.285Z,1.77
2022-11-10T19:17:32.268Z,1.70
2022-11-10T19:20:36.874Z,1.65
2022-11-10T19:23:40.974Z,1.60
2022-11-10T19:26:45.121Z,1.67
2022-11-10T19:29:49.067Z,1.70
2022-11-10T19:32:53.045Z,1.67
2022-11-10T19:36:01.069Z,1.50
2022-11-10T19:39:05.380Z,1.67
2022-11-10T19:42:09.288Z,1.35
2022-11-10T19:45:15.327Z,1.40
2022-11-10T19:48:19.507Z,1.67
2022-11-10T19:51:24.497Z,1.55
2022-11-10T19:54:28.476Z,1.60
2022-11-10T19:57:32.470Z,1.38
2022-11-10T20:00:36.082Z,2.03
2022-11-10T20:03:40.284Z,1.60
2022-11-10T20:06:44.400Z,1.40
2022-11-10T20:09:48.063Z,1.45
2022-11-10T20:12:51.992Z,1.80
2022-11-10T20:15:56.326Z,1.40
2022-11-10T20:19:00.254Z,1.47
2022-11-10T20:22:04.216Z,1.50
2022-11-10T20:25:08.651Z,1.65
2022-11-10T20:28:14.240Z,1.40
2022-11-10T20:31:20.604Z,1.70
2022-11-10T20:34:24.809Z,1.40
2022-11-10T20:37:31.885Z,1.73
2022-11-10T20:40:44.442Z,1.70
2022-11-10T20:43:49.075Z,1.25
2022-11-10T20:46:54.945Z,1.33
2022-11-10T20:49:59.746Z,1.40
2022-11-10T20:53:05.669Z,1.70
2022-11-10T20:56:13.607Z,1.55
2022-11-10T20:59:17.828Z,1.80
2022-11-10T21:02:21.863Z,1.50
2022-11-10T21:05:25.987Z,1.60
2022-11-10T21:08:30.181Z,1.50
2022-11-10T21:11:53.237Z,1.55
2022-11-10T21:14:58.186Z,1.45
2022-11-10T21:18:02.095Z,1.40
2022-11-10T21:21:18.318Z,1.60
2022-11-10T21:24:22.425Z,1.50
2022-11-10T21:27:26.596Z,1.50
2022-11-10T21:30:31.154Z,1.50
2022-11-10T21:33:35.062Z,1.60
2022-11-10T21:36:39.018Z,1.30
2022-11-10T21:39:44.041Z,1.35
2022-11-10T21:42:48.094Z,1.30
2022-11-10T21:45:59.224Z,1.50
2022-11-10T21:49:07.596Z,1.77
2022-11-10T21:52:12.126Z,1.80
2022-11-10T21:55:15.870Z,1.50
2022-11-10T21:58:19.780Z,1.40
2022-11-10T22:01:23.642Z,1.60
2022-11-10T22:04:28.239Z,1.52
2022-11-10T22:07:32.140Z,1.20
2022-11-10T22:10:55.622Z,1.52
2022-11-10T22:14:18.412Z,1.45
2022-11-10T22:17:41.230Z,1.60
2022-11-10T22:20:45.807Z,1.52
2022-11-10T22:24:08.525Z,2.13
2022-11-10T22:27:13.205Z,1.70
2022-11-10T22:30:17.513Z,1.42
2022-11-10T22:33:27.571Z,1.50
2022-11-10T22:36:31.175Z,1.60
2022-11-10T22:39:53.870Z,1.73
2022-11-10T22:43:17.611Z,1.75
2022-11-10T22:46:21.691Z,1.92
2022-11-10T22:49:25.435Z,1.38
2022-11-10T22:52:30.061Z,1.40
2022-11-10T22:55:34.252Z,1.60
2022-11-10T22:58:38.234Z,1.20
2022-11-10T23:01:43.797Z,1.45
2022-11-10T23:04:48.122Z,1.77
2022-11-10T23:07:51.896Z,1.30
2022-11-10T23:10:59.716Z,1.40
2022-11-10T23:14:04.540Z,1.10
2022-11-10T23:17:08.379Z,1.23
2022-11-10T23:20:12.412Z,1.02
2022-11-10T23:23:16.735Z,1.38
2022-11-10T23:26:22.185Z,1.47
2022-11-10T23:29:25.969Z,1.30
2022-11-10T23:32:29.909Z,1.20
2022-11-10T23:35:33.879Z,1.70
2022-11-10T23:38:38.193Z,1.10
2022-11-10T23:41:42.083Z,1.30
2022-11-10T23:44:45.763Z,1.48
2022-11-10T23:47:49.874Z,1.13
2022-11-10T23:50:53.700Z,1.20
2022-11-10T23:53:57.416Z,1.20
2022-11-10T23:57:01.204Z,1.40
